Collington, North Carolina
Current Conditions -  °F | °C
As of 3:55 AM on Friday 24 Oct 2014 (Local Time) from KFFA Reporting Station
Clear Clear  
Wind Chill: 56°   Ceiling: Unl
Heat Index: 56°   Visibility: 10mi
Dew Point: 47°   Wind: 8mph
Humidity: 70%   Direction: 310°NW
Pressure: 29.91"   Gusts: NA
Location:  36.1034°N, 75.7289°W
Report Text: KFFA 240755Z AUTO 31007KT 260V340 10SM CLR 14/08 A2991 RMK AO2 T01360083
Loading
Personal Weather Stations






























Interactive Weather Map
Tropical Storm Tracking
New forecast layout! Learn more

10-Day Weather Forecast

Advertisements
Track Severe Weather on mobile